createdAt,value
2022-12-18T00:01:06.913Z,-6.80
2022-12-18T00:03:34.237Z,-6.90
2022-12-18T00:06:00.840Z,-6.90
2022-12-18T00:08:27.368Z,-6.90
2022-12-18T00:10:54.092Z,-6.90
2022-12-18T00:13:26.409Z,-6.90
2022-12-18T00:15:54.517Z,-7.00
2022-12-18T00:18:23.264Z,-7.00
2022-12-18T00:20:49.739Z,-6.90
2022-12-18T00:23:16.171Z,-7.00
2022-12-18T00:25:42.655Z,-7.00
2022-12-18T00:28:09.095Z,-7.00
2022-12-18T00:30:35.570Z,-7.00
2022-12-18T00:33:02.083Z,-6.90
2022-12-18T00:35:28.752Z,-6.90
2022-12-18T00:37:55.200Z,-6.90
2022-12-18T00:40:21.717Z,-6.90
2022-12-18T00:42:57.146Z,-7.00
2022-12-18T00:45:27.749Z,-7.00
2022-12-18T00:47:54.478Z,-7.00
2022-12-18T00:50:21.391Z,-7.00
2022-12-18T00:52:48.045Z,-6.90
2022-12-18T00:55:14.847Z,-6.90
2022-12-18T00:57:41.628Z,-6.80
2022-12-18T01:00:08.962Z,-6.80
2022-12-18T01:02:35.587Z,-6.90
2022-12-18T01:05:02.715Z,-7.00
2022-12-18T01:07:29.213Z,-7.00
2022-12-18T01:09:55.818Z,-7.00
2022-12-18T01:12:22.339Z,-7.00
2022-12-18T01:14:48.865Z,-7.10
2022-12-18T01:17:15.435Z,-7.00
2022-12-18T01:19:42.768Z,-7.00
2022-12-18T01:22:09.248Z,-7.10
2022-12-18T01:24:35.812Z,-7.10
2022-12-18T01:27:02.282Z,-7.10
2022-12-18T01:29:28.751Z,-7.10
2022-12-18T01:31:58.449Z,-7.20
2022-12-18T01:34:25.098Z,-7.20
2022-12-18T01:36:54.281Z,-7.20
2022-12-18T01:39:20.777Z,-7.20
2022-12-18T01:42:02.500Z,-7.00
2022-12-18T01:44:47.759Z,-7.10
2022-12-18T01:47:32.565Z,-7.10
2022-12-18T01:50:00.302Z,-7.20
2022-12-18T01:52:28.963Z,-7.20
2022-12-18T01:54:56.112Z,-7.20
2022-12-18T01:57:24.386Z,-7.20
2022-12-18T01:59:53.566Z,-7.10
2022-12-18T02:02:21.453Z,-7.20
2022-12-18T02:04:49.734Z,-7.10
2022-12-18T02:07:30.106Z,-7.10
2022-12-18T02:10:00.759Z,-7.10
2022-12-18T02:12:33.642Z,-7.10
2022-12-18T02:15:12.170Z,-7.10
2022-12-18T02:17:43.065Z,-7.20
2022-12-18T02:20:20.060Z,-7.20
2022-12-18T02:23:05.145Z,-7.20
2022-12-18T02:25:41.251Z,-7.30
2022-12-18T02:28:09.101Z,-7.40
2022-12-18T02:30:36.714Z,-7.40
2022-12-18T02:33:04.912Z,-7.50
2022-12-18T02:35:33.611Z,-7.50
2022-12-18T02:38:00.818Z,-7.50
2022-12-18T02:40:28.339Z,-7.60
2022-12-18T02:42:55.200Z,-7.60
2022-12-18T02:45:21.696Z,-7.60
2022-12-18T02:47:49.391Z,-7.70
2022-12-18T02:50:19.042Z,-7.70
2022-12-18T02:52:54.746Z,-7.80
2022-12-18T02:55:21.278Z,-8.00
2022-12-18T02:57:55.693Z,-8.10
2022-12-18T03:00:29.584Z,-8.10
2022-12-18T03:03:15.008Z,-8.00
2022-12-18T03:05:51.642Z,-7.90
2022-12-18T03:08:26.856Z,-7.90
2022-12-18T03:11:04.095Z,-7.80
2022-12-18T03:13:33.650Z,-7.80
2022-12-18T03:16:00.934Z,-7.70
2022-12-18T03:18:31.142Z,-7.90
2022-12-18T03:20:59.904Z,-7.90
2022-12-18T03:23:29.786Z,-7.90
2022-12-18T03:26:01.874Z,-7.80
2022-12-18T03:28:33.298Z,-7.80
2022-12-18T03:31:01.372Z,-7.80
2022-12-18T03:33:35.608Z,-7.80
2022-12-18T03:36:02.160Z,-7.80
2022-12-18T03:38:28.622Z,-7.70
2022-12-18T03:40:58.084Z,-7.90
2022-12-18T03:43:43.514Z,-7.90
2022-12-18T03:46:21.281Z,-8.00
2022-12-18T03:48:52.695Z,-8.10
2022-12-18T03:51:26.506Z,-8.10
2022-12-18T03:54:01.073Z,-8.10
2022-12-18T03:56:31.755Z,-8.00
2022-12-18T03:59:01.889Z,-8.00
2022-12-18T04:01:33.391Z,-8.00
2022-12-18T04:04:01.067Z,-8.20
2022-12-18T04:06:28.045Z,-8.10
2022-12-18T04:08:54.688Z,-8.10
2022-12-18T04:11:21.249Z,-8.20
2022-12-18T04:13:47.887Z,-8.10
2022-12-18T04:16:14.420Z,-8.20
2022-12-18T04:18:40.985Z,-8.20
2022-12-18T04:21:07.591Z,-8.10
2022-12-18T04:23:34.044Z,-8.00
2022-12-18T04:26:00.563Z,-8.00
2022-12-18T04:28:27.019Z,-8.10
2022-12-18T04:30:53.709Z,-8.00
2022-12-18T04:33:20.487Z,-7.90
2022-12-18T04:35:46.998Z,-7.90
2022-12-18T04:38:13.565Z,-7.90
2022-12-18T04:40:40.328Z,-8.00
2022-12-18T04:43:08.540Z,-8.00
2022-12-18T04:45:35.170Z,-8.00
2022-12-18T04:48:01.976Z,-8.10
2022-12-18T04:50:28.625Z,-8.10
2022-12-18T04:52:55.135Z,-8.10
2022-12-18T04:55:21.690Z,-8.10
2022-12-18T04:57:48.124Z,-8.10
2022-12-18T05:00:14.882Z,-8.10
2022-12-18T05:02:41.469Z,-8.10
2022-12-18T05:05:08.603Z,-8.10
2022-12-18T05:07:35.159Z,-8.10
2022-12-18T05:10:01.611Z,-8.10
2022-12-18T05:12:28.086Z,-8.10
2022-12-18T05:14:54.599Z,-8.30
2022-12-18T05:17:21.094Z,-8.30
2022-12-18T05:19:47.535Z,-8.20
2022-12-18T05:22:13.992Z,-8.10
2022-12-18T05:24:40.486Z,-8.00
2022-12-18T05:27:06.964Z,-8.10
2022-12-18T05:29:33.511Z,-8.20
2022-12-18T05:31:59.955Z,-8.30
2022-12-18T05:34:26.564Z,-8.40
2022-12-18T05:36:53.095Z,-8.50
2022-12-18T05:39:19.573Z,-8.60
2022-12-18T05:41:46.011Z,-8.60
2022-12-18T05:44:13.497Z,-8.70
2022-12-18T05:46:42.771Z,-8.70
2022-12-18T05:49:10.040Z,-8.70
2022-12-18T05:51:36.866Z,-8.70
2022-12-18T05:54:03.396Z,-8.80
2022-12-18T05:56:30.398Z,-8.90
2022-12-18T05:58:56.843Z,-9.00
2022-12-18T06:01:25.109Z,-9.10
2022-12-18T06:03:51.699Z,-9.00
2022-12-18T06:06:20.414Z,-8.90
2022-12-18T06:08:47.084Z,-8.90
2022-12-18T06:11:14.199Z,-8.80
2022-12-18T06:13:41.140Z,-8.90
2022-12-18T06:16:08.887Z,-9.00
2022-12-18T06:18:38.603Z,-8.90
2022-12-18T06:21:05.327Z,-8.80
2022-12-18T06:23:32.048Z,-8.90
2022-12-18T06:25:58.596Z,-8.90
2022-12-18T06:28:25.073Z,-9.00
2022-12-18T06:30:51.763Z,-9.00
2022-12-18T06:33:18.351Z,-9.00
2022-12-18T06:35:44.932Z,-8.90
2022-12-18T06:38:11.536Z,-9.00
2022-12-18T06:40:39.167Z,-9.00
2022-12-18T06:43:06.101Z,-9.10
2022-12-18T06:45:32.695Z,-9.10
2022-12-18T06:47:59.211Z,-9.20
2022-12-18T06:50:25.981Z,-9.20
2022-12-18T06:52:52.473Z,-9.00
2022-12-18T06:55:19.123Z,-9.10
2022-12-18T06:57:45.819Z,-9.20
2022-12-18T07:00:12.502Z,-9.20
2022-12-18T07:02:39.197Z,-9.40
2022-12-18T07:05:10.524Z,-9.40
2022-12-18T07:07:37.844Z,-9.40
2022-12-18T07:10:04.684Z,-9.50
2022-12-18T07:12:31.164Z,-9.50
2022-12-18T07:14:57.588Z,-9.40
2022-12-18T07:17:24.160Z,-9.30
2022-12-18T07:19:50.638Z,-9.20
2022-12-18T07:22:17.281Z,-9.20
2022-12-18T07:24:43.860Z,-9.30
2022-12-18T07:27:10.309Z,-9.30
2022-12-18T07:29:36.984Z,-9.20
2022-12-18T07:32:04.734Z,-9.30
2022-12-18T07:34:31.336Z,-9.20
2022-12-18T07:36:58.744Z,-9.20
2022-12-18T07:39:25.248Z,-9.10
2022-12-18T07:42:10.681Z,-9.10
2022-12-18T07:44:37.475Z,-9.10
2022-12-18T07:47:07.805Z,-9.10
2022-12-18T07:49:38.333Z,-9.10
2022-12-18T07:52:04.871Z,-9.00
2022-12-18T07:54:31.352Z,-9.00
2022-12-18T07:56:57.845Z,-9.20
2022-12-18T07:59:24.341Z,-9.10
2022-12-18T08:01:51.001Z,-9.10
2022-12-18T08:04:17.753Z,-9.00
2022-12-18T08:06:47.759Z,-8.80
2022-12-18T08:09:14.954Z,-8.80
2022-12-18T08:11:41.496Z,-8.80
2022-12-18T08:14:08.182Z,-8.70
2022-12-18T08:16:34.759Z,-8.80
2022-12-18T08:19:01.426Z,-8.80
2022-12-18T08:21:29.166Z,-8.80
2022-12-18T08:23:58.383Z,-8.70
2022-12-18T08:26:25.762Z,-8.70
2022-12-18T08:28:52.830Z,-8.70
2022-12-18T08:31:19.662Z,-8.60
2022-12-18T08:33:46.651Z,-8.50
2022-12-18T08:36:13.587Z,-8.50
2022-12-18T08:38:40.067Z,-8.50
2022-12-18T08:41:08.199Z,-8.30
2022-12-18T08:43:53.809Z,-8.20
2022-12-18T08:46:21.028Z,-8.20
2022-12-18T08:48:47.850Z,-8.20
2022-12-18T08:51:16.565Z,-8.10
2022-12-18T08:53:43.389Z,-8.10
2022-12-18T08:56:10.249Z,-8.00
2022-12-18T08:58:36.789Z,-7.80
2022-12-18T09:01:04.212Z,-7.70
2022-12-18T09:03:30.904Z,-7.60
2022-12-18T09:05:57.649Z,-7.50
2022-12-18T09:08:24.264Z,-7.60
2022-12-18T09:10:51.020Z,-7.60
2022-12-18T09:13:17.893Z,-7.50
2022-12-18T09:15:46.333Z,-7.40
2022-12-18T09:18:13.776Z,-7.20
2022-12-18T09:20:40.280Z,-7.20
2022-12-18T09:23:07.287Z,-7.10
2022-12-18T09:25:36.503Z,-7.10
2022-12-18T09:28:03.816Z,-7.10
2022-12-18T09:30:30.416Z,-7.00
2022-12-18T09:32:56.948Z,-7.00
2022-12-18T09:35:23.517Z,-6.80
2022-12-18T09:37:49.956Z,-6.80
2022-12-18T09:40:20.783Z,-6.70
2022-12-18T09:42:50.014Z,-6.60
2022-12-18T09:45:17.248Z,-6.40
2022-12-18T09:47:44.623Z,-6.30
2022-12-18T09:50:34.565Z,-6.20
2022-12-18T09:53:13.930Z,-6.10
2022-12-18T09:55:42.158Z,-6.00
2022-12-18T09:58:10.277Z,-5.90
2022-12-18T10:00:36.872Z,-5.80
2022-12-18T10:03:13.829Z,-5.70
2022-12-18T10:05:50.652Z,-5.60
2022-12-18T10:08:22.916Z,-5.60
2022-12-18T10:10:50.721Z,-5.40
2022-12-18T10:13:34.876Z,-5.40
2022-12-18T10:16:16.095Z,-5.30
2022-12-18T10:18:58.133Z,-5.20
2022-12-18T10:21:32.889Z,-5.20
2022-12-18T10:24:20.034Z,-5.20
2022-12-18T10:26:47.601Z,-5.10
2022-12-18T10:29:15.680Z,-5.10
2022-12-18T10:31:42.509Z,-4.90
2022-12-18T10:34:15.617Z,-4.90
2022-12-18T10:36:43.922Z,-4.80
2022-12-18T10:39:16.423Z,-4.80
2022-12-18T10:41:42.911Z,-4.70
2022-12-18T10:44:18.163Z,-4.70
2022-12-18T10:46:46.178Z,-4.60
2022-12-18T10:49:38.707Z,-4.60
2022-12-18T10:52:14.995Z,-4.50
2022-12-18T10:54:46.836Z,-4.50
2022-12-18T10:57:36.853Z,-4.40
2022-12-18T11:00:23.304Z,-4.40
2022-12-18T11:02:50.048Z,-4.30
2022-12-18T11:05:28.679Z,-4.30
2022-12-18T11:07:55.768Z,-4.20
2022-12-18T11:10:23.723Z,-4.10
2022-12-18T11:12:50.289Z,-4.00
2022-12-18T11:15:28.558Z,-4.00
2022-12-18T11:17:55.238Z,-3.90
2022-12-18T11:20:27.694Z,-3.80
2022-12-18T11:22:59.175Z,-3.70
2022-12-18T11:25:34.723Z,-3.60
2022-12-18T11:28:03.347Z,-3.70
2022-12-18T11:30:31.773Z,-3.60
2022-12-18T11:33:07.543Z,-3.60
2022-12-18T11:35:37.911Z,-3.60
2022-12-18T11:38:13.729Z,-3.60
2022-12-18T11:40:42.782Z,-3.50
2022-12-18T11:43:28.281Z,-3.50
2022-12-18T11:45:57.443Z,-3.20
2022-12-18T11:48:27.812Z,-3.10
2022-12-18T11:50:56.151Z,-3.20
2022-12-18T11:53:23.060Z,-3.30
2022-12-18T11:55:49.577Z,-3.30
2022-12-18T11:58:31.099Z,-3.30
2022-12-18T12:01:37.609Z,-3.30
2022-12-18T12:04:14.528Z,-3.40
2022-12-18T12:06:50.288Z,-3.40
2022-12-18T12:09:32.289Z,-3.40
2022-12-18T12:12:07.379Z,-3.30
2022-12-18T12:14:33.912Z,-3.40
2022-12-18T12:17:06.498Z,-3.30
2022-12-18T12:19:36.136Z,-3.30
2022-12-18T12:22:08.867Z,-3.20
2022-12-18T12:24:44.304Z,-3.20
2022-12-18T12:27:21.799Z,-3.20
2022-12-18T12:29:55.008Z,-3.10
2022-12-18T12:32:33.848Z,-3.10
2022-12-18T12:35:10.011Z,-3.10
2022-12-18T12:37:42.785Z,-3.00
2022-12-18T12:40:48.816Z,-3.00
2022-12-18T12:43:25.390Z,-3.00
2022-12-18T12:45:54.839Z,-3.00
2022-12-18T12:48:35.369Z,-2.90
2022-12-18T12:51:04.100Z,-2.90
2022-12-18T12:53:39.025Z,-2.90
2022-12-18T12:56:07.702Z,-2.90
2022-12-18T12:58:52.395Z,-2.90
2022-12-18T13:01:36.980Z,-3.00
2022-12-18T13:04:22.274Z,-2.90
2022-12-18T13:06:54.033Z,-2.80
2022-12-18T13:09:22.040Z,-2.90
2022-12-18T13:12:07.688Z,-2.90
2022-12-18T13:14:36.035Z,-2.80
2022-12-18T13:17:35.114Z,-2.90
2022-12-18T13:20:06.746Z,-2.80
2022-12-18T13:22:38.441Z,-2.80
2022-12-18T13:25:25.429Z,-2.90
2022-12-18T13:28:01.201Z,-2.80
2022-12-18T13:30:33.561Z,-2.70
2022-12-18T13:33:15.423Z,-2.70
2022-12-18T13:35:42.853Z,-2.70
2022-12-18T13:38:33.781Z,-2.70
2022-12-18T13:41:15.511Z,-2.70
2022-12-18T13:43:50.740Z,-2.70
2022-12-18T13:46:25.334Z,-2.70
2022-12-18T13:48:54.629Z,-2.70
2022-12-18T13:51:22.036Z,-2.70
2022-12-18T13:53:53.169Z,-2.70
2022-12-18T13:56:23.291Z,-2.70
2022-12-18T13:59:08.934Z,-2.70
2022-12-18T14:01:35.566Z,-2.70
2022-12-18T14:04:19.171Z,-2.70
2022-12-18T14:06:46.552Z,-2.70
2022-12-18T14:09:19.019Z,-2.70
2022-12-18T14:11:51.725Z,-2.70
2022-12-18T14:14:19.111Z,-2.70
2022-12-18T14:16:47.137Z,-2.70
2022-12-18T14:19:18.483Z,-2.80
2022-12-18T14:21:48.887Z,-2.80
2022-12-18T14:24:20.032Z,-2.80
2022-12-18T14:26:47.027Z,-2.80
2022-12-18T14:29:22.065Z,-2.80
2022-12-18T14:32:05.256Z,-2.80
2022-12-18T14:34:31.706Z,-2.80
2022-12-18T14:36:58.181Z,-2.80
2022-12-18T14:39:26.327Z,-2.80
2022-12-18T14:41:54.201Z,-2.80
2022-12-18T14:44:22.193Z,-2.80
2022-12-18T14:46:50.079Z,-2.90
2022-12-18T14:49:27.777Z,-2.90
2022-12-18T14:52:00.751Z,-2.90
2022-12-18T14:54:28.003Z,-2.90
2022-12-18T14:57:05.232Z,-2.90
2022-12-18T14:59:32.039Z,-3.00
2022-12-18T15:02:06.173Z,-3.00
2022-12-18T15:04:32.825Z,-3.00
2022-12-18T15:07:14.690Z,-3.00
2022-12-18T15:09:45.944Z,-3.10
2022-12-18T15:12:23.493Z,-3.10
2022-12-18T15:14:50.039Z,-3.10
2022-12-18T15:17:20.038Z,-3.10
2022-12-18T15:19:46.872Z,-3.10
2022-12-18T15:22:25.596Z,-3.10
2022-12-18T15:24:52.536Z,-3.10
2022-12-18T15:27:32.837Z,-3.10
2022-12-18T15:30:11.502Z,-3.10
2022-12-18T15:32:38.846Z,-3.10
2022-12-18T15:35:25.023Z,-3.10
2022-12-18T15:37:52.288Z,-3.10
2022-12-18T15:40:20.437Z,-3.10
2022-12-18T15:43:06.379Z,-3.10
2022-12-18T15:45:33.093Z,-3.20
2022-12-18T15:47:59.792Z,-3.20
2022-12-18T15:50:26.548Z,-3.20
2022-12-18T15:52:55.801Z,-3.10
2022-12-18T15:55:42.347Z,-3.10
2022-12-18T15:58:09.876Z,-3.20
2022-12-18T16:00:37.452Z,-3.20
2022-12-18T16:03:04.789Z,-3.20
2022-12-18T16:05:32.283Z,-3.20
2022-12-18T16:07:59.156Z,-3.20
2022-12-18T16:10:27.007Z,-3.20
2022-12-18T16:12:53.510Z,-3.30
2022-12-18T16:15:24.468Z,-3.30
2022-12-18T16:17:52.484Z,-3.40
2022-12-18T16:20:21.548Z,-3.30
2022-12-18T16:22:48.617Z,-3.30
2022-12-18T16:25:26.042Z,-3.40
2022-12-18T16:27:53.182Z,-3.30
2022-12-18T16:30:21.732Z,-3.40
2022-12-18T16:32:48.204Z,-3.40
2022-12-18T16:35:15.474Z,-3.40
2022-12-18T16:37:42.552Z,-3.40
2022-12-18T16:40:10.896Z,-3.40
2022-12-18T16:42:37.966Z,-3.40
2022-12-18T16:45:05.343Z,-3.50
2022-12-18T16:47:31.866Z,-3.40
2022-12-18T16:49:58.545Z,-3.40
2022-12-18T16:52:25.214Z,-3.40
2022-12-18T16:54:51.775Z,-3.40
2022-12-18T16:57:19.092Z,-3.40
2022-12-18T16:59:46.065Z,-3.40
2022-12-18T17:02:14.866Z,-3.50
2022-12-18T17:04:42.275Z,-3.50
2022-12-18T17:07:09.587Z,-3.50
2022-12-18T17:09:36.324Z,-3.50
2022-12-18T17:12:04.490Z,-3.50
2022-12-18T17:14:31.909Z,-3.50
2022-12-18T17:17:20.261Z,-3.50
2022-12-18T17:19:46.447Z,-3.50
2022-12-18T17:22:12.968Z,-3.50
2022-12-18T17:24:39.617Z,-3.50
2022-12-18T17:27:06.308Z,-3.50
2022-12-18T17:29:32.868Z,-3.50
2022-12-18T17:32:00.428Z,-3.70
2022-12-18T17:34:27.215Z,-3.60
2022-12-18T17:36:54.003Z,-3.60
2022-12-18T17:39:21.085Z,-3.50
2022-12-18T17:41:48.632Z,-3.50
2022-12-18T17:44:15.654Z,-3.50
2022-12-18T17:46:42.461Z,-3.40
2022-12-18T17:49:10.093Z,-3.40
2022-12-18T17:51:36.587Z,-3.40
2022-12-18T17:54:03.186Z,-3.50
2022-12-18T17:56:29.730Z,-3.50
2022-12-18T17:58:56.289Z,-3.40
2022-12-18T18:01:24.109Z,-3.40
2022-12-18T18:03:53.751Z,-3.40
2022-12-18T18:06:20.627Z,-3.40
2022-12-18T18:08:47.437Z,-3.40
2022-12-18T18:11:34.727Z,-3.40
2022-12-18T18:14:01.725Z,-3.30
2022-12-18T18:16:29.252Z,-3.30
2022-12-18T18:19:01.644Z,-3.30
2022-12-18T18:21:28.744Z,-3.30
2022-12-18T18:23:58.613Z,-3.30
2022-12-18T18:26:27.011Z,-3.30
2022-12-18T18:28:55.279Z,-3.40
2022-12-18T18:31:25.398Z,-3.30
2022-12-18T18:33:52.040Z,-3.30
2022-12-18T18:36:18.535Z,-3.20
2022-12-18T18:38:48.369Z,-3.20
2022-12-18T18:41:15.674Z,-3.20
2022-12-18T18:43:42.619Z,-3.20
2022-12-18T18:46:12.507Z,-3.10
2022-12-18T18:48:40.100Z,-3.10
2022-12-18T18:51:15.301Z,-3.10
2022-12-18T18:53:49.045Z,-3.10
2022-12-18T18:56:45.379Z,-3.10
2022-12-18T18:59:03.254Z,-3.10
2022-12-18T19:01:29.873Z,-3.00
2022-12-18T19:03:56.446Z,-3.10
2022-12-18T19:06:24.509Z,-3.10
2022-12-18T19:08:51.790Z,-3.00
2022-12-18T19:11:37.605Z,-3.00
2022-12-18T19:14:05.706Z,-2.90
2022-12-18T19:16:32.977Z,-2.90
2022-12-18T19:19:02.386Z,-2.90
2022-12-18T19:21:31.368Z,-2.90
2022-12-18T19:24:00.841Z,-2.90
2022-12-18T19:26:28.526Z,-2.90
2022-12-18T19:29:00.271Z,-2.90
2022-12-18T19:31:31.830Z,-2.90
2022-12-18T19:34:01.836Z,-2.90
2022-12-18T19:36:29.314Z,-2.80
2022-12-18T19:38:57.407Z,-2.80
2022-12-18T19:41:24.367Z,-2.80
2022-12-18T19:43:52.729Z,-2.80
2022-12-18T19:46:20.444Z,-2.80
2022-12-18T19:48:47.388Z,-2.70
2022-12-18T19:51:16.122Z,-2.70
2022-12-18T19:53:42.803Z,-2.70
2022-12-18T19:56:10.599Z,-2.70
2022-12-18T19:58:37.326Z,-2.60
2022-12-18T20:01:04.079Z,-2.60
2022-12-18T20:03:33.057Z,-2.60
2022-12-18T20:06:09.979Z,-2.50
2022-12-18T20:08:37.035Z,-2.50
2022-12-18T20:11:03.783Z,-2.50
2022-12-18T20:13:30.840Z,-2.50
2022-12-18T20:15:57.377Z,-2.50
2022-12-18T20:18:23.909Z,-2.50
2022-12-18T20:20:50.438Z,-2.50
2022-12-18T20:23:18.418Z,-2.40
2022-12-18T20:25:45.001Z,-2.40
2022-12-18T20:28:11.654Z,-2.50
2022-12-18T20:30:38.183Z,-2.40
2022-12-18T20:33:04.707Z,-2.50
2022-12-18T20:35:34.475Z,-2.50
2022-12-18T20:38:01.231Z,-2.50
2022-12-18T20:40:28.574Z,-2.50
2022-12-18T20:42:55.081Z,-2.50
2022-12-18T20:45:21.711Z,-2.50
2022-12-18T20:47:48.275Z,-2.50
2022-12-18T20:50:15.304Z,-2.40
2022-12-18T20:52:41.865Z,-2.40
2022-12-18T20:55:08.528Z,-2.40
2022-12-18T20:57:35.043Z,-2.40
2022-12-18T21:00:04.251Z,-2.50
2022-12-18T21:02:30.971Z,-2.50
2022-12-18T21:04:57.597Z,-2.50
2022-12-18T21:07:24.184Z,-2.50
2022-12-18T21:09:50.804Z,-2.50
2022-12-18T21:12:34.883Z,-2.50
2022-12-18T21:15:08.668Z,-2.50
2022-12-18T21:17:44.193Z,-2.50
2022-12-18T21:20:11.600Z,-2.40
2022-12-18T21:22:44.197Z,-2.40
2022-12-18T21:25:10.748Z,-2.30
2022-12-18T21:27:37.208Z,-2.30
2022-12-18T21:30:03.941Z,-2.30
2022-12-18T21:32:33.387Z,-2.30
2022-12-18T21:35:00.125Z,-2.30
2022-12-18T21:37:26.597Z,-2.20
2022-12-18T21:39:53.109Z,-2.20
2022-12-18T21:42:38.264Z,-2.20
2022-12-18T21:45:04.962Z,-2.20
2022-12-18T21:47:31.460Z,-2.10
2022-12-18T21:49:58.013Z,-2.10
2022-12-18T21:52:29.812Z,-2.10
2022-12-18T21:55:00.741Z,-2.10
2022-12-18T21:57:32.973Z,-2.10
2022-12-18T21:59:59.471Z,-2.10
2022-12-18T22:02:26.585Z,-2.10
2022-12-18T22:04:53.236Z,-2.10
2022-12-18T22:07:20.470Z,-2.10
2022-12-18T22:09:49.229Z,-2.10
2022-12-18T22:12:35.377Z,-2.10
2022-12-18T22:15:04.167Z,-2.10
2022-12-18T22:17:30.774Z,-2.10
2022-12-18T22:19:57.333Z,-2.10
2022-12-18T22:22:23.852Z,-2.10
2022-12-18T22:24:50.356Z,-2.10
2022-12-18T22:27:16.823Z,-2.10
2022-12-18T22:30:02.116Z,-2.10
2022-12-18T22:32:31.249Z,-2.10
2022-12-18T22:35:04.587Z,-2.10
2022-12-18T22:37:32.737Z,-2.10
2022-12-18T22:39:59.212Z,-2.10
2022-12-18T22:42:29.413Z,-2.10
2022-12-18T22:44:55.840Z,-2.10
2022-12-18T22:47:26.503Z,-2.10
2022-12-18T22:49:55.766Z,-2.10
2022-12-18T22:52:22.562Z,-2.10
2022-12-18T22:54:51.416Z,-2.10
2022-12-18T22:57:19.955Z,-2.10
2022-12-18T22:59:46.399Z,-2.00
2022-12-18T23:02:13.052Z,-2.00
2022-12-18T23:04:39.714Z,-2.00
2022-12-18T23:07:06.416Z,-1.90
2022-12-18T23:09:32.946Z,-2.00
2022-12-18T23:11:59.646Z,-2.00
2022-12-18T23:14:26.653Z,-2.00
2022-12-18T23:16:53.394Z,-1.90
2022-12-18T23:19:20.351Z,-1.90
2022-12-18T23:21:47.159Z,-1.90
2022-12-18T23:24:14.006Z,-1.90
2022-12-18T23:26:40.516Z,-1.90
2022-12-18T23:29:07.132Z,-1.90
2022-12-18T23:31:34.864Z,-1.90
2022-12-18T23:34:02.234Z,-1.80
2022-12-18T23:36:29.193Z,-1.80
2022-12-18T23:38:58.348Z,-1.80
2022-12-18T23:41:26.773Z,-1.80
2022-12-18T23:43:54.072Z,-1.80
2022-12-18T23:46:22.226Z,-1.80
2022-12-18T23:48:49.281Z,-1.80
2022-12-18T23:51:16.782Z,-1.80
2022-12-18T23:53:43.559Z,-1.80
2022-12-18T23:56:10.757Z,-1.80
2022-12-18T23:58:37.812Z,-1.80
